Airfield :
LOGIN :

Register | Disclaimer

   EN    FR    IT 

 










Legend :    VFR   Marginal VFR   IFR   Intensive IFR   Very Intensive IFR
Visi :
Ceiling :
>= 8 km
>= 3000ft
5 to 8 km
1000 to 3000 ft
1500m to 5 km
500 to 1000 ft
800 to 1500m
200 to 500 ft
< 800m
< 200 ft
Symbols :   Thunderstorms  Fog  Heavy snow  Heavy precipitations  Wind > 20 kt
SIGMETs :     Misc.  Thunderstorms  Icing  Turbulence  Mountain Waves  Volcanic Ashes







- Airport Elevation : 776 ft
- IATA code : RMS


ETAR - Ramstein Air Base

CURRENT METAR :
  • 181756Z AUTO 08003KT 9999 CLR M01/M01 A3026 RMK AO2 SLP269 T10141015 10040 21028 55002 $

EXPIRED METARs :
  • 181656Z AUTO 08003KT 9999 CLR 01/M01 A3027 RMK AO2 SLP271 T00111013 $
  • 181556Z AUTO 06007KT 9999 CLR 03/M01 A3026 RMK AO2 SLP266 T00301012 $

TAF TAF ETAR
Valid from the 18 at 18:00 until the 20 at 00:00 UTC


181801Z 1818/2000 09009KT 9999 SCT020 QNH3004INS TX04/1914Z TNM03/1904Z
No reported NOTAMs for that airfield.



MET'MAP, your aeronautical weather chart ! - Copyright ORBIFLY December 2007 - Disclaimer

ORBIFLY MET'MAP TEAM :

Programming & Development : Alexandra Zaïnal
Concept & Development : Baudouin d'Aumeries
Co-Development & Prog : Marc-Olivier Méhu
Technical & hardware support : Manuel Goepfert

Contact : metmap@orbifly.com




SOURCES & CREDITS :

   NOAA